createdAt,value
2019-05-09T00:02:25.862Z,10.93
2019-05-09T00:04:55.373Z,11.53
2019-05-09T00:07:24.823Z,10.70
2019-05-09T00:09:54.276Z,9.03
2019-05-09T00:12:23.712Z,8.50
2019-05-09T00:14:54.021Z,9.57
2019-05-09T00:17:24.633Z,8.50
2019-05-09T00:19:55.755Z,8.90
2019-05-09T00:22:25.181Z,7.43
2019-05-09T00:24:54.612Z,8.27
2019-05-09T00:27:24.222Z,7.37
2019-05-09T00:29:55.003Z,7.30
2019-05-09T00:32:35.171Z,7.80
2019-05-09T00:35:10.671Z,7.37
2019-05-09T00:37:53.857Z,8.10
2019-05-09T00:40:24.229Z,8.40
2019-05-09T00:42:54.459Z,8.90
2019-05-09T00:45:28.429Z,9.20
2019-05-09T00:47:57.834Z,9.63
2019-05-09T00:50:29.603Z,9.97
2019-05-09T00:52:58.397Z,9.07
2019-05-09T00:55:28.026Z,9.03
2019-05-09T00:57:57.497Z,8.97
2019-05-09T01:00:27.098Z,9.87
2019-05-09T01:02:56.583Z,10.27
2019-05-09T01:05:26.037Z,9.47
2019-05-09T01:07:55.411Z,9.10
2019-05-09T01:10:24.939Z,8.83
2019-05-09T01:12:54.383Z,7.50
2019-05-09T01:15:24.163Z,8.27
2019-05-09T01:17:53.835Z,8.33
2019-05-09T01:20:24.371Z,8.53
2019-05-09T01:22:54.189Z,8.27
2019-05-09T01:25:24.155Z,7.97
2019-05-09T01:27:54.064Z,8.07
2019-05-09T01:30:25.054Z,8.80
2019-05-09T01:33:14.121Z,8.90
2019-05-09T01:35:44.569Z,8.37
2019-05-09T01:38:14.397Z,9.87
2019-05-09T01:40:44.048Z,10.90
2019-05-09T01:43:13.960Z,10.20
2019-05-09T01:45:45.276Z,9.97
2019-05-09T01:48:14.573Z,10.37
2019-05-09T01:50:44.007Z,10.27
2019-05-09T01:53:15.180Z,11.17
2019-05-09T01:55:57.851Z,10.63
2019-05-09T01:58:30.482Z,11.97
2019-05-09T02:01:03.698Z,14.63
2019-05-09T02:03:33.746Z,12.50
2019-05-09T02:06:03.734Z,12.90
2019-05-09T02:08:34.462Z,12.30
2019-05-09T02:11:04.783Z,12.33
2019-05-09T02:13:35.382Z,11.00
2019-05-09T02:16:09.064Z,12.13
2019-05-09T02:18:45.591Z,11.60
2019-05-09T02:21:14.969Z,12.00
2019-05-09T02:23:44.560Z,11.27
2019-05-09T02:26:14.078Z,10.80
2019-05-09T02:28:43.512Z,10.10
2019-05-09T02:31:16.170Z,11.47
2019-05-09T02:33:45.570Z,10.90
2019-05-09T02:36:18.653Z,11.17
2019-05-09T02:38:48.637Z,12.73
2019-05-09T02:41:19.576Z,14.15
2019-05-09T02:43:49.840Z,11.67
2019-05-09T02:46:38.492Z,12.70
2019-05-09T02:49:09.212Z,10.77
2019-05-09T02:51:39.075Z,12.73
2019-05-09T02:54:09.759Z,11.90
2019-05-09T02:56:40.713Z,12.47
2019-05-09T02:59:18.984Z,12.70
2019-05-09T03:01:50.327Z,14.57
2019-05-09T03:04:19.817Z,13.20
2019-05-09T03:06:49.546Z,12.43
2019-05-09T03:09:20.124Z,12.17
2019-05-09T03:11:49.741Z,14.73
2019-05-09T03:14:19.630Z,16.17
2019-05-09T03:16:49.453Z,13.30
2019-05-09T03:19:19.666Z,13.67
2019-05-09T03:21:50.986Z,14.40
2019-05-09T03:24:21.493Z,14.37
2019-05-09T03:26:52.647Z,16.03
2019-05-09T03:29:23.727Z,15.23
2019-05-09T03:31:53.937Z,15.03
2019-05-09T03:34:23.445Z,15.43
2019-05-09T03:36:52.898Z,14.30
2019-05-09T03:39:22.352Z,16.10
2019-05-09T03:41:51.802Z,16.83
2019-05-09T03:44:21.486Z,16.50
2019-05-09T03:46:57.931Z,17.07
2019-05-09T03:49:28.386Z,19.83
2019-05-09T03:51:58.520Z,17.07
2019-05-09T03:54:28.444Z,17.97
2019-05-09T03:57:07.621Z,17.47
2019-05-09T03:59:38.106Z,18.07
2019-05-09T04:02:10.044Z,15.93
2019-05-09T04:04:38.736Z,16.10
2019-05-09T04:07:08.524Z,18.13
2019-05-09T04:09:39.716Z,17.73
2019-05-09T04:12:10.456Z,16.10
2019-05-09T04:14:40.068Z,17.92
2019-05-09T04:17:11.874Z,19.17
2019-05-09T04:19:41.397Z,16.57
2019-05-09T04:22:10.857Z,18.00
2019-05-09T04:24:40.374Z,19.10
2019-05-09T04:27:11.498Z,19.50
2019-05-09T04:29:40.942Z,19.90
2019-05-09T04:32:10.409Z,19.03
2019-05-09T04:34:39.838Z,19.37
2019-05-09T04:37:12.116Z,21.53
2019-05-09T04:39:40.767Z,21.80
2019-05-09T04:42:22.280Z,20.83
2019-05-09T04:44:57.654Z,21.03
2019-05-09T04:47:24.452Z,23.80
2019-05-09T04:49:58.238Z,21.87
2019-05-09T04:52:27.939Z,20.80
2019-05-09T04:54:57.678Z,21.73
2019-05-09T04:57:27.863Z,20.17
2019-05-09T04:59:57.611Z,19.37
2019-05-09T05:02:38.150Z,20.83
2019-05-09T05:05:10.180Z,20.30
2019-05-09T05:07:39.565Z,24.73
2019-05-09T05:10:09.353Z,22.83
2019-05-09T05:12:39.368Z,20.27
2019-05-09T05:15:09.066Z,22.10
2019-05-09T05:17:38.599Z,21.10
2019-05-09T05:20:09.842Z,21.10
2019-05-09T05:22:40.954Z,21.60
2019-05-09T05:25:10.630Z,21.50
2019-05-09T05:27:40.096Z,23.53
2019-05-09T05:30:10.077Z,22.47
2019-05-09T05:32:44.127Z,21.40
2019-05-09T05:35:18.089Z,21.47
2019-05-09T05:37:47.807Z,21.20
2019-05-09T05:40:17.849Z,21.77
2019-05-09T05:42:47.713Z,21.68
2019-05-09T05:45:18.094Z,22.50
2019-05-09T05:47:49.396Z,24.00
2019-05-09T05:50:18.843Z,22.87
2019-05-09T05:52:48.287Z,23.87
2019-05-09T05:55:18.361Z,24.40
2019-05-09T05:57:47.939Z,24.27
2019-05-09T06:00:19.449Z,24.77
2019-05-09T06:02:48.995Z,24.50
2019-05-09T06:05:18.833Z,25.87
2019-05-09T06:07:48.543Z,25.90
2019-05-09T06:10:18.760Z,26.85
2019-05-09T06:12:48.409Z,25.97
2019-05-09T06:15:19.032Z,26.10
2019-05-09T06:17:49.577Z,26.25
2019-05-09T06:20:20.428Z,26.70
2019-05-09T06:22:49.969Z,29.13
2019-05-09T06:25:20.723Z,30.88
2019-05-09T06:27:50.488Z,32.13
2019-05-09T06:30:30.329Z,31.40
2019-05-09T06:32:59.900Z,34.13
2019-05-09T06:35:29.350Z,32.80
2019-05-09T06:37:59.149Z,33.90
2019-05-09T06:40:29.754Z,34.83
2019-05-09T06:43:00.923Z,32.90
2019-05-09T06:45:44.056Z,34.40
2019-05-09T06:48:14.621Z,34.73
2019-05-09T06:50:44.104Z,34.35
2019-05-09T06:53:13.561Z,33.90
2019-05-09T06:55:42.996Z,35.43
2019-05-09T06:58:30.748Z,38.53
2019-05-09T07:01:03.044Z,36.38
2019-05-09T07:03:34.307Z,38.07
2019-05-09T07:06:20.189Z,36.03
2019-05-09T07:09:08.370Z,34.67
2019-05-09T07:11:38.143Z,36.88
2019-05-09T07:14:25.620Z,36.40
2019-05-09T07:16:42.105Z,37.07
2019-05-09T07:19:11.475Z,37.05
2019-05-09T07:21:58.540Z,37.17
2019-05-09T07:24:28.706Z,38.28
2019-05-09T07:27:17.968Z,36.42
2019-05-09T07:29:48.091Z,35.00
2019-05-09T07:32:19.227Z,39.35
2019-05-09T07:34:53.126Z,37.17
2019-05-09T07:37:22.580Z,38.67
2019-05-09T07:39:52.076Z,39.20
2019-05-09T07:42:21.523Z,39.30
2019-05-09T07:44:52.491Z,39.03
2019-05-09T07:47:23.253Z,38.30
2019-05-09T07:49:52.702Z,39.65
2019-05-09T07:52:22.149Z,37.23
2019-05-09T07:54:51.632Z,37.63
2019-05-09T07:57:21.067Z,38.03
2019-05-09T07:59:50.495Z,37.98
2019-05-09T08:02:21.607Z,36.23
2019-05-09T08:04:51.037Z,37.75
2019-05-09T08:07:20.483Z,37.20
2019-05-09T08:09:51.003Z,37.23
2019-05-09T08:12:20.433Z,33.87
2019-05-09T08:15:07.654Z,37.15
2019-05-09T08:17:25.179Z,36.65
2019-05-09T08:19:54.645Z,33.75
2019-05-09T08:22:25.945Z,34.83
2019-05-09T08:24:57.516Z,32.13
2019-05-09T08:27:30.066Z,32.42
2019-05-09T08:29:58.394Z,32.35
2019-05-09T08:32:28.580Z,31.90
2019-05-09T08:34:58.355Z,29.10
2019-05-09T08:37:28.434Z,30.17
2019-05-09T08:39:58.035Z,28.10
2019-05-09T08:42:29.338Z,29.87
2019-05-09T08:44:58.533Z,27.82
2019-05-09T08:47:27.963Z,28.12
2019-05-09T08:50:02.096Z,28.67
2019-05-09T08:52:31.598Z,26.05
2019-05-09T08:55:01.070Z,27.93
2019-05-09T08:57:30.506Z,24.92
2019-05-09T08:59:59.922Z,28.27
2019-05-09T09:02:29.450Z,24.65
2019-05-09T09:04:59.107Z,25.97
2019-05-09T09:07:29.802Z,25.05
2019-05-09T09:09:59.413Z,25.90
2019-05-09T09:12:34.102Z,26.45
2019-05-09T09:15:00.037Z,22.40
2019-05-09T09:17:29.498Z,22.45
2019-05-09T09:19:58.941Z,23.50
2019-05-09T09:22:29.177Z,21.07
2019-05-09T09:24:58.941Z,19.57
2019-05-09T09:27:31.194Z,18.50
2019-05-09T09:30:16.472Z,20.12
2019-05-09T09:32:31.977Z,20.15
2019-05-09T09:35:01.442Z,21.12
2019-05-09T09:37:45.061Z,20.32
2019-05-09T09:40:02.077Z,18.82
2019-05-09T09:42:31.581Z,20.68
2019-05-09T09:45:01.039Z,20.40
2019-05-09T09:47:30.612Z,19.62
2019-05-09T09:50:00.583Z,19.92
2019-05-09T09:52:34.165Z,17.98
2019-05-09T09:55:01.238Z,18.73
2019-05-09T09:57:30.689Z,17.98
2019-05-09T10:00:01.719Z,18.00
2019-05-09T10:02:32.875Z,16.80
2019-05-09T10:05:02.342Z,16.45
2019-05-09T10:07:31.936Z,15.88
2019-05-09T10:10:01.383Z,16.25
2019-05-09T10:12:31.023Z,16.00
2019-05-09T10:15:18.932Z,16.37
2019-05-09T10:17:50.120Z,16.40
2019-05-09T10:20:21.145Z,16.20
2019-05-09T10:22:59.784Z,14.53
2019-05-09T10:25:22.975Z,14.10
2019-05-09T10:27:52.560Z,15.23
2019-05-09T10:30:29.871Z,14.25
2019-05-09T10:32:59.355Z,14.95
2019-05-09T10:35:28.880Z,13.62
2019-05-09T10:37:59.604Z,15.05
2019-05-09T10:40:31.289Z,13.32
2019-05-09T10:43:02.046Z,15.08
2019-05-09T10:45:39.928Z,13.80
2019-05-09T10:48:08.316Z,14.10
2019-05-09T10:50:44.911Z,14.70
2019-05-09T10:53:09.121Z,13.58
2019-05-09T10:55:38.772Z,14.15
2019-05-09T10:58:08.401Z,12.13
2019-05-09T11:00:39.418Z,10.58
2019-05-09T11:03:09.176Z,9.75
2019-05-09T11:05:38.631Z,8.95
2019-05-09T11:08:08.367Z,12.58
2019-05-09T11:10:39.674Z,10.13
2019-05-09T11:13:08.918Z,9.38
2019-05-09T11:15:38.470Z,9.05
2019-05-09T11:18:08.270Z,9.73
2019-05-09T11:20:37.988Z,9.75
2019-05-09T11:23:08.098Z,9.33
2019-05-09T11:25:38.173Z,8.90
2019-05-09T11:28:12.656Z,9.08
2019-05-09T11:30:38.870Z,9.30
2019-05-09T11:33:08.356Z,10.28
2019-05-09T11:35:38.160Z,10.55
2019-05-09T11:38:33.686Z,9.75
2019-05-09T11:40:58.153Z,9.23
2019-05-09T11:43:29.936Z,9.08
2019-05-09T11:45:59.568Z,11.60
2019-05-09T11:48:29.147Z,9.55
2019-05-09T11:50:59.019Z,9.28
2019-05-09T11:53:28.911Z,9.25
2019-05-09T11:55:58.593Z,8.45
2019-05-09T11:58:31.294Z,6.62
2019-05-09T12:01:03.245Z,6.80
2019-05-09T12:03:33.112Z,11.57
2019-05-09T12:06:02.693Z,8.78
2019-05-09T12:08:32.131Z,9.85
2019-05-09T12:11:01.658Z,8.03
2019-05-09T12:13:31.099Z,7.80
2019-05-09T12:16:00.560Z,8.03
2019-05-09T12:18:32.612Z,7.20
2019-05-09T12:21:02.058Z,7.22
2019-05-09T12:23:31.509Z,5.95
2019-05-09T12:26:00.958Z,5.95
2019-05-09T12:28:30.431Z,6.58
2019-05-09T12:30:59.863Z,8.83
2019-05-09T12:33:33.132Z,5.50
2019-05-09T12:36:02.073Z,7.25
2019-05-09T12:38:31.510Z,6.10
2019-05-09T12:41:00.926Z,5.87
2019-05-09T12:43:30.385Z,5.90
2019-05-09T12:46:03.788Z,5.83
2019-05-09T12:48:33.226Z,6.10
2019-05-09T12:51:02.663Z,6.90
2019-05-09T12:53:32.115Z,6.53
2019-05-09T12:56:01.673Z,6.05
2019-05-09T12:58:31.433Z,5.85
2019-05-09T13:01:00.952Z,6.42
2019-05-09T13:03:30.544Z,5.62
2019-05-09T13:05:59.991Z,5.25
2019-05-09T13:08:29.546Z,3.62
2019-05-09T13:11:02.308Z,3.70
2019-05-09T13:13:32.225Z,4.55
2019-05-09T13:16:11.974Z,5.03
2019-05-09T13:18:48.965Z,4.97
2019-05-09T13:21:18.806Z,5.25
2019-05-09T13:23:52.329Z,4.12
2019-05-09T13:26:19.415Z,4.22
2019-05-09T13:28:49.046Z,4.33
2019-05-09T13:31:18.589Z,3.95
2019-05-09T13:33:48.729Z,4.87
2019-05-09T13:36:19.010Z,5.35
2019-05-09T13:39:00.274Z,3.98
2019-05-09T13:41:19.776Z,5.40
2019-05-09T13:43:57.595Z,4.92
2019-05-09T13:46:20.334Z,4.95
2019-05-09T13:49:05.776Z,6.35
2019-05-09T13:51:20.922Z,4.30
2019-05-09T13:53:50.378Z,5.23
2019-05-09T13:56:19.832Z,3.72
2019-05-09T13:58:49.372Z,3.55
2019-05-09T14:01:18.920Z,5.58
2019-05-09T14:03:49.158Z,5.15
2019-05-09T14:06:18.757Z,3.70
2019-05-09T14:08:49.112Z,4.60
2019-05-09T14:11:19.440Z,4.40
2019-05-09T14:13:49.041Z,3.98
2019-05-09T14:16:22.096Z,7.03
2019-05-09T14:18:49.644Z,4.95
2019-05-09T14:21:24.091Z,4.45
2019-05-09T14:24:03.103Z,5.12
2019-05-09T14:26:21.420Z,5.73
2019-05-09T14:28:51.526Z,3.10
2019-05-09T14:31:20.992Z,5.45
2019-05-09T14:33:50.510Z,5.05
2019-05-09T14:36:20.042Z,4.25
2019-05-09T14:38:49.501Z,4.23
2019-05-09T14:41:19.343Z,2.83
2019-05-09T14:43:48.858Z,3.80
2019-05-09T14:46:18.347Z,4.62
2019-05-09T14:48:48.283Z,3.77
2019-05-09T14:51:18.667Z,3.87
2019-05-09T14:53:48.609Z,3.25
2019-05-09T14:56:18.142Z,1.87
2019-05-09T14:58:48.515Z,5.15
2019-05-09T15:01:19.417Z,4.92
2019-05-09T15:03:48.946Z,3.52
2019-05-09T15:06:18.425Z,4.50
2019-05-09T15:08:48.309Z,3.80
2019-05-09T15:11:18.285Z,3.62
2019-05-09T15:13:49.101Z,3.43
2019-05-09T15:16:18.644Z,2.85
2019-05-09T15:18:48.759Z,2.85
2019-05-09T15:21:19.134Z,3.47
2019-05-09T15:23:49.455Z,3.50
2019-05-09T15:26:18.949Z,3.35
2019-05-09T15:28:48.510Z,3.62
2019-05-09T15:31:19.676Z,2.60
2019-05-09T15:33:49.112Z,4.03
2019-05-09T15:36:19.405Z,3.58
2019-05-09T15:38:48.965Z,3.22
2019-05-09T15:41:18.556Z,2.67
2019-05-09T15:43:48.714Z,4.43
2019-05-09T15:46:19.888Z,5.37
2019-05-09T15:48:49.348Z,4.75
2019-05-09T15:51:19.841Z,4.22
2019-05-09T15:53:49.306Z,2.92
2019-05-09T15:56:19.803Z,4.22
2019-05-09T15:58:49.354Z,4.73
2019-05-09T16:01:18.855Z,3.55
2019-05-09T16:03:48.805Z,4.15
2019-05-09T16:06:20.041Z,3.33
2019-05-09T16:08:49.928Z,3.85
2019-05-09T16:11:19.401Z,5.70
2019-05-09T16:13:48.921Z,4.87
2019-05-09T16:16:18.379Z,4.03
2019-05-09T16:18:48.673Z,3.02
2019-05-09T16:21:18.461Z,3.45
2019-05-09T16:23:48.623Z,3.87
2019-05-09T16:26:18.372Z,5.10
2019-05-09T16:28:48.818Z,4.53
2019-05-09T16:31:18.360Z,3.87
2019-05-09T16:33:47.848Z,4.58
2019-05-09T16:36:18.197Z,3.33
2019-05-09T16:38:49.126Z,4.30
2019-05-09T16:41:18.789Z,5.08
2019-05-09T16:43:48.238Z,5.27
2019-05-09T16:46:18.208Z,4.28
2019-05-09T16:48:47.777Z,4.12
2019-05-09T16:51:18.208Z,4.47
2019-05-09T16:53:49.774Z,6.50
2019-05-09T16:56:19.092Z,4.60
2019-05-09T16:58:48.641Z,3.55
2019-05-09T17:01:18.747Z,3.05
2019-05-09T17:03:48.393Z,3.47
2019-05-09T17:06:18.478Z,2.83
2019-05-09T17:08:47.987Z,3.98
2019-05-09T17:11:19.224Z,3.60
2019-05-09T17:13:48.849Z,3.37
2019-05-09T17:16:18.265Z,5.05
2019-05-09T17:18:48.607Z,5.60
2019-05-09T17:21:23.981Z,5.08
2019-05-09T17:23:51.766Z,3.47
2019-05-09T17:26:21.324Z,4.47
2019-05-09T17:28:50.906Z,6.50
2019-05-09T17:31:20.436Z,3.15
2019-05-09T17:33:49.928Z,3.60
2019-05-09T17:36:19.451Z,3.30
2019-05-09T17:38:48.987Z,5.80
2019-05-09T17:41:18.521Z,3.10
2019-05-09T17:43:48.033Z,3.90
2019-05-09T17:46:19.130Z,3.05
2019-05-09T17:48:48.755Z,3.85
2019-05-09T17:51:32.337Z,3.65
2019-05-09T17:53:51.896Z,4.62
2019-05-09T17:56:20.660Z,2.67
2019-05-09T17:58:50.171Z,7.95
2019-05-09T18:01:20.556Z,4.83
2019-05-09T18:03:50.008Z,4.72
2019-05-09T18:06:19.575Z,4.75
2019-05-09T18:08:50.254Z,2.58
2019-05-09T18:11:19.915Z,3.30
2019-05-09T18:13:49.517Z,2.77
2019-05-09T18:16:19.188Z,2.52
2019-05-09T18:18:49.238Z,4.47
2019-05-09T18:21:18.857Z,4.20
2019-05-09T18:23:48.467Z,3.92
2019-05-09T18:26:18.683Z,3.33
2019-05-09T18:28:48.321Z,3.55
2019-05-09T18:31:18.992Z,2.65
2019-05-09T18:33:50.177Z,4.97
2019-05-09T18:36:20.595Z,4.83
2019-05-09T18:38:50.173Z,5.30
2019-05-09T18:41:19.696Z,7.55
2019-05-09T18:43:49.320Z,2.67
2019-05-09T18:46:21.645Z,3.08
2019-05-09T18:48:51.127Z,5.05
2019-05-09T18:51:20.600Z,5.90
2019-05-09T18:53:50.152Z,5.12
2019-05-09T18:56:20.872Z,6.17
2019-05-09T18:58:51.682Z,3.80
2019-05-09T19:01:21.295Z,4.37
2019-05-09T19:03:51.762Z,4.17
2019-05-09T19:06:21.235Z,5.85
2019-05-09T19:08:50.759Z,5.07
2019-05-09T19:11:20.325Z,4.95
2019-05-09T19:13:49.929Z,5.40
2019-05-09T19:16:21.153Z,5.42
2019-05-09T19:18:52.337Z,4.37
2019-05-09T19:21:24.486Z,5.65
2019-05-09T19:23:54.025Z,7.72
2019-05-09T19:26:35.900Z,6.37
2019-05-09T19:29:07.559Z,4.25
2019-05-09T19:31:37.934Z,4.20
2019-05-09T19:34:07.525Z,5.55
2019-05-09T19:36:37.143Z,7.13
2019-05-09T19:39:08.828Z,5.47
2019-05-09T19:41:38.414Z,4.22
2019-05-09T19:44:08.013Z,5.10
2019-05-09T19:46:38.801Z,6.12
2019-05-09T19:49:08.502Z,6.15
2019-05-09T19:51:38.093Z,3.98
2019-05-09T19:54:07.624Z,5.53
2019-05-09T19:56:37.267Z,5.37
2019-05-09T19:59:08.142Z,4.83
2019-05-09T20:01:38.100Z,5.15
2019-05-09T20:04:07.818Z,6.28
2019-05-09T20:06:37.444Z,4.92
2019-05-09T20:09:09.024Z,3.62
2019-05-09T20:11:52.446Z,7.05
2019-05-09T20:14:29.511Z,6.80
2019-05-09T20:16:59.223Z,4.78
2019-05-09T20:19:32.011Z,6.12
2019-05-09T20:22:04.772Z,4.58
2019-05-09T20:24:35.139Z,6.40
2019-05-09T20:27:04.850Z,4.70
2019-05-09T20:29:37.604Z,6.78
2019-05-09T20:32:08.896Z,6.27
2019-05-09T20:34:39.794Z,9.03
2019-05-09T20:37:09.466Z,10.70
2019-05-09T20:39:40.608Z,13.38
2019-05-09T20:42:11.804Z,12.43
2019-05-09T20:44:42.077Z,14.80
2019-05-09T20:47:12.949Z,11.63
2019-05-09T20:49:42.796Z,8.78
2019-05-09T20:52:12.677Z,7.65
2019-05-09T20:54:42.647Z,7.90
2019-05-09T20:57:13.034Z,9.05
2019-05-09T20:59:43.783Z,7.20
2019-05-09T21:02:13.748Z,10.28
2019-05-09T21:04:43.556Z,6.83
2019-05-09T21:07:13.385Z,9.73
2019-05-09T21:09:44.102Z,9.20
2019-05-09T21:12:16.439Z,9.80
2019-05-09T21:14:47.561Z,7.35
2019-05-09T21:17:17.354Z,9.05
2019-05-09T21:19:47.170Z,9.98
2019-05-09T21:22:17.041Z,11.83
2019-05-09T21:24:48.911Z,13.80
2019-05-09T21:27:18.422Z,11.05
2019-05-09T21:29:48.076Z,9.27
2019-05-09T21:32:17.840Z,8.60
2019-05-09T21:34:49.099Z,5.78
2019-05-09T21:37:18.692Z,7.63
2019-05-09T21:39:48.206Z,6.90
2019-05-09T21:42:17.650Z,8.25
2019-05-09T21:44:47.224Z,6.73
2019-05-09T21:47:16.648Z,5.20
2019-05-09T21:49:46.098Z,6.75
2019-05-09T21:52:16.090Z,6.90
2019-05-09T21:54:45.665Z,6.90
2019-05-09T21:57:15.197Z,6.67
2019-05-09T21:59:44.866Z,6.83
2019-05-09T22:02:14.867Z,5.70
2019-05-09T22:04:44.438Z,5.03
2019-05-09T22:07:14.348Z,7.33
2019-05-09T22:09:44.910Z,5.67
2019-05-09T22:12:15.439Z,7.10
2019-05-09T22:14:45.061Z,5.87
2019-05-09T22:17:19.033Z,7.03
2019-05-09T22:19:48.475Z,4.60
2019-05-09T22:22:18.022Z,5.72
2019-05-09T22:24:47.615Z,6.33
2019-05-09T22:27:17.150Z,7.17
2019-05-09T22:29:46.610Z,5.12
2019-05-09T22:32:16.090Z,4.35
2019-05-09T22:34:45.612Z,4.53
2019-05-09T22:37:14.980Z,4.67
2019-05-09T22:39:44.485Z,6.22
2019-05-09T22:42:13.940Z,4.97
2019-05-09T22:44:43.366Z,4.65
2019-05-09T22:47:12.775Z,5.85
2019-05-09T22:49:42.230Z,7.45
2019-05-09T22:52:11.955Z,5.65
2019-05-09T22:54:41.415Z,5.17
2019-05-09T22:57:10.882Z,7.33
2019-05-09T22:59:40.435Z,7.53
2019-05-09T23:02:09.976Z,7.50
2019-05-09T23:04:39.496Z,6.08
2019-05-09T23:07:09.042Z,8.05
2019-05-09T23:09:38.528Z,9.50
2019-05-09T23:12:08.123Z,7.10
2019-05-09T23:14:37.656Z,8.78
2019-05-09T23:17:08.256Z,7.40
2019-05-09T23:19:37.704Z,8.98
2019-05-09T23:22:07.494Z,9.23
2019-05-09T23:24:38.829Z,8.43
2019-05-09T23:27:09.972Z,8.80
2019-05-09T23:29:40.445Z,8.90
2019-05-09T23:32:11.441Z,13.35
2019-05-09T23:34:40.920Z,8.33
2019-05-09T23:37:10.431Z,7.83
2019-05-09T23:39:44.493Z,9.35
2019-05-09T23:42:14.060Z,8.93
2019-05-09T23:44:43.575Z,7.63
2019-05-09T23:47:13.020Z,8.48
2019-05-09T23:49:42.479Z,9.95
2019-05-09T23:52:12.171Z,9.85
2019-05-09T23:55:01.019Z,9.63
2019-05-09T23:57:48.427Z,10.82
